createdAt,value
2019-03-20T00:02:08.785Z,7.30
2019-03-20T00:04:37.858Z,7.30
2019-03-20T00:07:07.405Z,7.30
2019-03-20T00:09:36.609Z,7.30
2019-03-20T00:12:05.747Z,7.40
2019-03-20T00:14:34.824Z,7.40
2019-03-20T00:17:04.181Z,7.40
2019-03-20T00:19:33.165Z,7.40
2019-03-20T00:22:02.148Z,7.40
2019-03-20T00:24:31.323Z,7.40
2019-03-20T00:27:00.423Z,7.40
2019-03-20T00:29:29.507Z,7.40
2019-03-20T00:32:00.429Z,7.50
2019-03-20T00:34:29.520Z,7.50
2019-03-20T00:36:58.875Z,7.50
2019-03-20T00:39:27.993Z,7.50
2019-03-20T00:41:57.021Z,7.50
2019-03-20T00:44:26.084Z,7.50
2019-03-20T00:46:55.240Z,7.50
2019-03-20T00:49:24.206Z,7.50
2019-03-20T00:51:53.262Z,7.50
2019-03-20T00:54:22.342Z,7.50
2019-03-20T00:56:51.482Z,7.50
2019-03-20T00:59:20.434Z,7.60
2019-03-20T01:01:49.543Z,7.60
2019-03-20T01:04:18.674Z,7.60
2019-03-20T01:06:47.828Z,7.60
2019-03-20T01:09:17.963Z,7.70
2019-03-20T01:11:46.922Z,7.70
2019-03-20T01:14:16.200Z,7.70
2019-03-20T01:16:45.254Z,7.70
2019-03-20T01:19:16.408Z,7.80
2019-03-20T01:21:45.320Z,7.80
2019-03-20T01:24:14.501Z,7.80
2019-03-20T01:26:43.736Z,7.80
2019-03-20T01:29:12.942Z,7.80
2019-03-20T01:31:41.960Z,7.80
2019-03-20T01:34:10.877Z,7.80
2019-03-20T01:36:39.798Z,7.80
2019-03-20T01:39:09.335Z,7.90
2019-03-20T01:41:38.865Z,7.90
2019-03-20T01:44:07.998Z,7.90
2019-03-20T01:46:37.070Z,7.90
2019-03-20T01:49:06.162Z,8.00
2019-03-20T01:51:35.263Z,8.00
2019-03-20T01:54:05.766Z,8.00
2019-03-20T01:56:35.386Z,8.00
2019-03-20T01:59:04.489Z,8.00
2019-03-20T02:01:34.614Z,8.00
2019-03-20T02:04:03.726Z,8.10
2019-03-20T02:06:32.718Z,8.10
2019-03-20T02:09:01.825Z,8.10
2019-03-20T02:11:30.917Z,8.10
2019-03-20T02:13:59.905Z,8.10
2019-03-20T02:16:28.848Z,8.10
2019-03-20T02:18:58.033Z,8.10
2019-03-20T02:21:27.426Z,8.10
2019-03-20T02:23:56.582Z,8.10
2019-03-20T02:26:26.090Z,8.20
2019-03-20T02:29:04.971Z,8.20
2019-03-20T02:31:34.222Z,8.20
2019-03-20T02:34:03.494Z,8.20
2019-03-20T02:36:32.572Z,8.20
2019-03-20T02:39:01.569Z,8.20
2019-03-20T02:41:30.885Z,8.20
2019-03-20T02:44:00.052Z,8.20
2019-03-20T02:46:29.635Z,8.20
2019-03-20T02:48:59.330Z,8.20
2019-03-20T02:51:28.538Z,8.20
2019-03-20T02:53:57.534Z,8.20
2019-03-20T02:56:26.619Z,8.20
2019-03-20T02:58:55.855Z,8.20
2019-03-20T03:01:26.160Z,8.20
2019-03-20T03:03:55.214Z,8.30
2019-03-20T03:06:24.358Z,8.30
2019-03-20T03:08:53.313Z,8.30
2019-03-20T03:11:22.406Z,8.30
2019-03-20T03:13:51.609Z,8.30
2019-03-20T03:16:20.704Z,8.30
2019-03-20T03:18:49.757Z,8.30
2019-03-20T03:21:18.891Z,8.30
2019-03-20T03:23:48.148Z,8.30
2019-03-20T03:26:17.316Z,8.30
2019-03-20T03:28:46.446Z,8.30
2019-03-20T03:31:15.602Z,8.30
2019-03-20T03:33:44.723Z,8.30
2019-03-20T03:36:21.077Z,8.30
2019-03-20T03:38:44.815Z,8.30
2019-03-20T03:41:14.026Z,8.30
2019-03-20T03:43:43.255Z,8.30
2019-03-20T03:46:12.438Z,8.30
2019-03-20T03:48:41.634Z,8.30
2019-03-20T03:51:10.799Z,8.30
2019-03-20T03:53:39.932Z,8.30
2019-03-20T03:56:09.172Z,8.30
2019-03-20T03:58:38.121Z,8.30
2019-03-20T04:01:07.307Z,8.30
2019-03-20T04:03:36.526Z,8.30
2019-03-20T04:06:05.672Z,8.30
2019-03-20T04:08:34.728Z,8.30
2019-03-20T04:11:03.792Z,8.30
2019-03-20T04:13:32.827Z,8.30
2019-03-20T04:16:01.898Z,8.30
2019-03-20T04:18:30.997Z,8.40
2019-03-20T04:21:01.037Z,8.30
2019-03-20T04:23:30.272Z,8.40
2019-03-20T04:26:00.454Z,8.40
2019-03-20T04:28:29.834Z,8.40
2019-03-20T04:30:59.159Z,8.40
2019-03-20T04:33:28.330Z,8.40
2019-03-20T04:36:05.442Z,8.40
2019-03-20T04:38:34.776Z,8.40
2019-03-20T04:41:04.357Z,8.30
2019-03-20T04:43:33.575Z,8.30
2019-03-20T04:46:02.682Z,8.30
2019-03-20T04:48:31.693Z,8.40
2019-03-20T04:51:00.709Z,8.40
2019-03-20T04:53:29.876Z,8.40
2019-03-20T04:55:59.225Z,8.40
2019-03-20T04:58:28.719Z,8.40
2019-03-20T05:00:58.237Z,8.40
2019-03-20T05:03:27.388Z,8.50
2019-03-20T05:05:56.430Z,8.50
2019-03-20T05:08:25.518Z,8.50
2019-03-20T05:10:54.504Z,8.50
2019-03-20T05:13:23.549Z,8.60
2019-03-20T05:15:52.789Z,8.50
2019-03-20T05:18:22.097Z,8.60
2019-03-20T05:20:51.198Z,8.60
2019-03-20T05:23:20.199Z,8.60
2019-03-20T05:25:49.620Z,8.60
2019-03-20T05:28:29.550Z,8.60
2019-03-20T05:30:54.977Z,8.60
2019-03-20T05:33:26.430Z,8.60
2019-03-20T05:35:55.967Z,8.70
2019-03-20T05:38:25.193Z,8.70
2019-03-20T05:41:03.895Z,8.70
2019-03-20T05:43:30.816Z,8.80
2019-03-20T05:46:00.500Z,8.80
2019-03-20T05:48:30.032Z,8.80
2019-03-20T05:50:59.641Z,8.80
2019-03-20T05:53:29.004Z,8.90
2019-03-20T05:57:05.924Z,8.90
2019-03-20T05:59:15.330Z,8.90
2019-03-20T06:01:44.762Z,8.90
2019-03-20T06:04:14.294Z,8.90
2019-03-20T06:06:43.926Z,8.90
2019-03-20T06:09:13.338Z,9.00
2019-03-20T06:11:48.911Z,9.00
2019-03-20T06:14:14.065Z,9.00
2019-03-20T06:16:47.241Z,9.00
2019-03-20T06:19:16.431Z,9.00
2019-03-20T06:21:45.791Z,9.00
2019-03-20T06:24:15.202Z,9.00
2019-03-20T06:26:44.346Z,9.00
2019-03-20T06:29:13.591Z,9.10
2019-03-20T06:32:25.325Z,9.10
2019-03-20T06:34:56.526Z,9.10
2019-03-20T06:37:32.592Z,9.10
2019-03-20T06:40:03.486Z,9.20
2019-03-20T06:42:32.812Z,9.20
2019-03-20T06:45:21.383Z,9.20
2019-03-20T06:47:50.678Z,9.30
2019-03-20T06:50:19.839Z,9.30
2019-03-20T06:52:49.731Z,9.30
2019-03-20T06:55:19.895Z,9.40
2019-03-20T06:58:05.499Z,9.40
2019-03-20T07:01:06.953Z,9.50
2019-03-20T07:03:42.888Z,9.50
2019-03-20T09:04:58.883Z,11.60
2019-03-20T09:13:30.552Z,11.90
2019-03-20T09:16:00.294Z,11.90
2019-03-20T09:18:30.202Z,11.90
2019-03-20T09:20:59.490Z,11.90
2019-03-20T09:23:28.942Z,12.00
2019-03-20T09:26:00.436Z,12.10
2019-03-20T09:28:30.262Z,12.30
2019-03-20T09:30:59.449Z,12.40
2019-03-20T09:33:29.860Z,12.50
2019-03-20T09:35:59.158Z,12.50
2019-03-20T09:38:28.959Z,12.40
2019-03-20T09:41:20.789Z,12.40
2019-03-20T09:44:28.928Z,12.30
2019-03-20T09:46:57.876Z,12.20
2019-03-20T09:49:27.950Z,12.20
2019-03-20T09:51:57.356Z,12.20
2019-03-20T09:54:40.371Z,12.20
2019-03-20T09:57:10.192Z,12.30
2019-03-20T09:59:59.867Z,12.30
2019-03-20T10:02:29.774Z,12.40
2019-03-20T10:04:59.712Z,12.40
2019-03-20T10:07:50.443Z,12.50
2019-03-20T10:10:36.026Z,12.50
2019-03-20T10:13:17.415Z,12.60
2019-03-20T10:16:10.188Z,12.80
2019-03-20T10:18:48.669Z,12.90
2019-03-20T10:21:26.800Z,12.90
2019-03-20T10:23:53.206Z,12.90
2019-03-20T10:26:28.809Z,12.90
2019-03-20T10:29:00.432Z,12.90
2019-03-20T10:31:30.218Z,12.80
2019-03-20T10:33:59.493Z,12.80
2019-03-20T10:36:28.920Z,12.70
2019-03-20T10:39:06.292Z,12.70
2019-03-20T10:41:37.546Z,12.70
2019-03-20T10:44:07.700Z,12.70
2019-03-20T10:46:38.078Z,12.80
2019-03-20T10:49:09.290Z,12.80
2019-03-20T10:51:38.807Z,12.80
2019-03-20T10:54:08.211Z,12.80
2019-03-20T10:56:40.534Z,12.80
2019-03-20T10:59:09.979Z,12.80
2019-03-20T11:01:42.688Z,12.90
2019-03-20T11:04:10.585Z,13.00
2019-03-20T11:06:42.862Z,12.90
2019-03-20T11:09:18.432Z,13.00
2019-03-20T11:11:50.679Z,13.00
2019-03-20T11:14:19.898Z,13.10
2019-03-20T11:16:56.445Z,13.20
2019-03-20T11:19:36.779Z,13.30
2019-03-20T11:22:19.185Z,13.30
2019-03-20T11:24:58.921Z,13.40
2019-03-20T11:27:29.382Z,13.30
2019-03-20T11:29:58.685Z,13.30
2019-03-20T11:32:27.912Z,13.30
2019-03-20T11:34:59.577Z,13.30
2019-03-20T11:37:31.275Z,13.30
2019-03-20T11:40:00.655Z,13.30
2019-03-20T11:42:30.003Z,13.20
2019-03-20T11:45:02.619Z,13.10
2019-03-20T11:47:35.951Z,13.00
2019-03-20T11:50:15.677Z,13.00
2019-03-20T11:53:08.630Z,13.00
2019-03-20T11:59:46.717Z,13.00
2019-03-20T12:02:28.351Z,13.00
2019-03-20T12:05:18.702Z,13.00
2019-03-20T12:12:07.595Z,13.30
2019-03-20T12:15:37.229Z,13.40
2019-03-20T12:18:07.435Z,13.50
2019-03-20T12:20:40.027Z,13.60
2019-03-20T12:23:12.138Z,13.60
2019-03-20T12:26:47.817Z,13.70
2019-03-20T12:31:47.996Z,13.80
2019-03-20T12:34:18.732Z,13.90
2019-03-20T12:36:49.836Z,13.90
2019-03-20T12:39:56.371Z,14.10
2019-03-20T12:42:37.702Z,14.10
2019-03-20T12:44:50.149Z,14.20
2019-03-20T12:47:20.647Z,14.10
2019-03-20T12:49:49.747Z,14.10
2019-03-20T12:52:18.822Z,14.10
2019-03-20T12:54:47.918Z,14.00
2019-03-20T12:57:29.608Z,14.00
2019-03-20T13:00:09.569Z,14.00
2019-03-20T13:03:00.215Z,14.00
2019-03-20T13:09:09.723Z,14.00
2019-03-20T13:11:20.167Z,14.00
2019-03-20T13:13:49.380Z,14.00
2019-03-20T13:16:18.596Z,13.90
2019-03-20T13:19:29.855Z,13.90
2019-03-20T13:32:03.634Z,14.10
2019-03-20T13:34:37.010Z,14.10
2019-03-20T13:40:22.088Z,14.30
2019-03-20T13:43:29.866Z,14.40
2019-03-20T13:45:59.534Z,14.60
2019-03-20T13:49:08.518Z,14.70
2019-03-20T13:51:37.795Z,14.80
2019-03-20T13:54:09.286Z,14.90
2019-03-20T13:56:38.503Z,15.00
2019-03-20T13:59:07.601Z,15.00
2019-03-20T14:01:38.378Z,15.10
2019-03-20T14:04:07.473Z,15.20
2019-03-20T14:06:36.617Z,15.20
2019-03-20T14:09:10.278Z,15.10
2019-03-20T14:11:39.505Z,15.00
2019-03-20T14:14:21.048Z,14.90
2019-03-20T14:17:39.986Z,14.90
2019-03-20T14:23:21.624Z,15.00
2019-03-20T14:25:55.029Z,15.10
2019-03-20T14:28:27.579Z,15.10
2019-03-20T14:30:58.006Z,15.20
2019-03-20T14:33:25.917Z,15.40
2019-03-20T14:35:55.061Z,15.40
2019-03-20T14:38:24.146Z,15.40
2019-03-20T14:40:55.087Z,15.30
2019-03-20T14:43:25.792Z,15.20
2019-03-20T14:45:59.365Z,15.10
2019-03-20T14:48:29.185Z,15.00
2019-03-20T14:51:02.333Z,15.00
2019-03-20T14:53:37.230Z,15.10
2019-03-20T14:56:05.570Z,15.10
2019-03-20T14:58:38.078Z,15.10
2019-03-20T15:01:08.700Z,14.90
2019-03-20T15:03:37.852Z,14.90
2019-03-20T15:12:32.960Z,14.60
2019-03-20T15:15:03.690Z,14.60
2019-03-20T15:18:40.584Z,14.50
2019-03-20T15:20:29.886Z,14.40
2019-03-20T15:23:07.661Z,14.40
2019-03-20T15:29:07.119Z,14.30
2019-03-20T15:31:41.018Z,14.10
2019-03-20T16:23:30.072Z,13.50
2019-03-20T16:26:12.723Z,13.50
2019-03-20T16:28:45.397Z,13.50
2019-03-20T16:37:47.035Z,13.20
2019-03-20T16:40:26.268Z,13.20
2019-03-20T16:42:57.022Z,13.20
2019-03-20T16:45:36.559Z,13.20
2019-03-20T16:48:36.936Z,13.20
2019-03-20T16:51:02.387Z,13.10
2019-03-20T16:53:31.669Z,13.10
2019-03-20T16:56:01.137Z,13.10
2019-03-20T16:58:30.500Z,13.10
2019-03-20T17:00:59.592Z,13.10
2019-03-20T17:03:28.834Z,13.00
2019-03-20T17:05:59.174Z,13.00
2019-03-20T17:08:29.263Z,12.90
2019-03-20T17:10:58.686Z,12.90
2019-03-20T17:13:38.354Z,12.80
2019-03-20T17:16:04.076Z,12.70
2019-03-20T17:18:35.487Z,12.70
2019-03-20T17:22:08.745Z,12.60
2019-03-20T17:24:39.205Z,12.60
2019-03-20T17:27:13.349Z,12.40
2019-03-20T17:29:42.557Z,12.40
2019-03-20T17:32:11.761Z,12.30
2019-03-20T17:35:17.581Z,12.30
2019-03-20T17:37:50.447Z,12.30
2019-03-20T17:40:19.940Z,12.30
2019-03-20T17:43:09.108Z,12.20
2019-03-20T17:45:50.887Z,12.20
2019-03-20T17:48:53.847Z,12.10
2019-03-20T17:51:40.241Z,12.10
2019-03-20T17:54:13.485Z,12.00
2019-03-20T18:03:34.222Z,11.90
2019-03-20T19:12:13.751Z,11.40
2019-03-20T19:12:44.062Z,11.40
2019-03-20T19:16:43.643Z,11.40
2019-03-20T19:20:36.171Z,11.40
2019-03-20T19:23:32.919Z,11.40
2019-03-20T19:29:43.128Z,11.40
2019-03-20T19:32:54.305Z,11.40
2019-03-20T20:16:46.067Z,11.30
2019-03-20T20:19:22.873Z,11.30
2019-03-20T20:23:04.216Z,11.30
2019-03-20T20:24:53.664Z,11.30
2019-03-20T20:35:06.896Z,11.20
2019-03-20T20:37:45.624Z,11.20
2019-03-20T20:40:16.145Z,11.10
2019-03-20T20:42:45.538Z,11.10
2019-03-20T20:45:22.307Z,11.20
2019-03-20T20:47:48.849Z,11.20
2019-03-20T20:50:24.538Z,11.20
2019-03-20T20:52:53.756Z,11.20
2019-03-20T20:55:33.460Z,11.20
2019-03-20T20:58:06.879Z,11.20
2019-03-20T21:00:36.058Z,11.10
2019-03-20T21:03:05.666Z,11.10
2019-03-20T21:12:07.138Z,11.10
2019-03-20T21:14:36.796Z,11.00
2019-03-20T21:20:27.206Z,11.00
2019-03-20T21:27:35.228Z,11.00
2019-03-20T21:30:44.003Z,11.00
2019-03-20T21:37:16.746Z,10.90
2019-03-20T21:40:33.392Z,10.80
2019-03-20T21:43:37.351Z,10.70
2019-03-20T21:46:53.718Z,10.60
2019-03-20T21:49:36.895Z,10.60
2019-03-20T21:52:15.151Z,10.50
2019-03-20T21:55:27.714Z,10.50
2019-03-20T21:58:12.624Z,10.50
2019-03-20T22:01:40.699Z,10.40
2019-03-20T22:04:10.519Z,10.40
2019-03-20T22:07:09.517Z,10.40
2019-03-20T22:10:30.237Z,10.30
2019-03-20T22:13:46.634Z,10.20
2019-03-20T22:16:58.678Z,10.10
2019-03-20T22:19:44.459Z,10.10
2019-03-20T22:22:37.233Z,10.00
2019-03-20T22:26:01.237Z,10.00
2019-03-20T22:28:54.674Z,9.90
2019-03-20T22:31:23.943Z,9.90
2019-03-20T22:34:24.611Z,9.80
2019-03-20T22:36:57.112Z,9.80
2019-03-20T22:40:02.075Z,9.80
2019-03-20T22:43:05.972Z,9.80
2019-03-20T22:46:06.272Z,9.70
2019-03-20T23:09:34.678Z,9.30
2019-03-20T23:12:09.155Z,9.30
2019-03-20T23:14:46.839Z,9.20
2019-03-20T23:17:17.224Z,9.20
2019-03-20T23:19:49.369Z,9.10
